Time;durP1;ratioP1;P1;durP2;ratioP2;P2;SDS_P1;SDS_P2;PMS_P1;PMS_P2;Temp;Humidity;BMP_temperature;BMP_pressure;BME280_temperature;BME280_humidity;BME280_pressure;Samples;Min_cycle;Max_cycle;Signal;HPM_P1;HPM_P2
2021/12/18 00:01:03;;;;;;;17.23;9.20;;;;;;;6.70;89.18;104196.47;5008495;28;20477;-69
2021/12/18 00:03:28;;;;;;;14.15;7.72;;;;;;;6.76;88.73;104193.16;5006735;28;20037;-69
2021/12/18 00:05:54;;;;;;;11.43;7.35;;;;;;;6.75;88.62;104190.50;5004697;28;20034;-70
2021/12/18 00:08:19;;;;;;;13.95;7.68;;;;;;;6.72;88.73;104193.00;4988340;28;20077;-69
2021/12/18 00:10:45;;;;;;;12.32;7.03;;;;;;;6.74;88.81;104188.72;4996278;28;20074;-69
2021/12/18 00:13:11;;;;;;;12.50;7.70;;;;;;;6.67;88.89;104190.19;5010068;28;20022;-69
2021/12/18 00:15:37;;;;;;;12.73;7.47;;;;;;;6.66;88.93;104191.03;5004350;28;20184;-70
2021/12/18 00:18:02;;;;;;;11.63;6.18;;;;;;;6.70;88.58;104188.59;4999842;28;20161;-69
2021/12/18 00:20:28;;;;;;;13.88;7.47;;;;;;;6.69;88.42;104191.16;4993338;28;20045;-70
2021/12/18 00:22:54;;;;;;;11.07;6.30;;;;;;;6.67;88.59;104195.44;4993382;28;20033;-69
2021/12/18 00:25:19;;;;;;;10.07;6.85;;;;;;;6.67;88.30;104187.59;4994869;28;20022;-68
2021/12/18 00:27:45;;;;;;;11.55;6.95;;;;;;;6.63;88.54;104188.31;5008692;28;20033;-68
2021/12/18 00:30:10;;;;;;;12.15;6.45;;;;;;;6.63;88.56;104188.31;4998261;28;20022;-69
2021/12/18 00:32:36;;;;;;;10.18;5.95;;;;;;;6.61;88.41;104182.09;5010490;28;20067;-68
2021/12/18 00:35:02;;;;;;;8.85;4.95;;;;;;;6.61;88.29;104180.41;5000184;28;20173;-68
2021/12/18 00:37:27;;;;;;;9.43;5.15;;;;;;;6.63;88.26;104183.06;5004410;28;20033;-68
2021/12/18 00:39:57;;;;;;;9.20;5.20;;;;;;;6.63;88.16;104175.22;4993174;28;20385;-68
2021/12/18 00:42:39;;;;;;;6.35;3.75;;;;;;;6.67;88.23;104171.84;5010306;28;20030;-68
2021/12/18 00:45:08;;;;;;;9.10;4.78;;;;;;;6.65;88.21;104168.31;5011250;28;20029;-68
2021/12/18 00:47:33;;;;;;;8.20;4.55;;;;;;;6.64;88.19;104166.50;4997310;28;20030;-69
2021/12/18 00:49:59;;;;;;;6.68;3.80;;;;;;;6.65;88.25;104170.94;5005767;28;20551;-68
2021/12/18 00:52:24;;;;;;;8.00;4.10;;;;;;;6.65;88.05;104165.69;4992953;28;20044;-69
2021/12/18 00:54:50;;;;;;;7.03;3.90;;;;;;;6.67;88.06;104164.91;4998386;28;20033;-68
2021/12/18 00:57:16;;;;;;;5.75;3.83;;;;;;;6.67;88.15;104162.28;5006245;28;20413;-68
2021/12/18 00:59:41;;;;;;;6.38;4.28;;;;;;;6.64;88.18;104169.13;4998015;28;20109;-68
2021/12/18 01:02:07;;;;;;;7.47;4.10;;;;;;;6.61;88.13;104175.16;4990953;28;20109;-69
2021/12/18 01:04:33;;;;;;;11.30;4.35;;;;;;;6.62;88.50;104165.56;4997989;28;20076;-69
2021/12/18 01:06:58;;;;;;;11.55;4.63;;;;;;;6.63;88.58;104162.09;5011949;28;20109;-69
2021/12/18 01:09:41;;;;;;;6.70;4.47;;;;;;;6.60;88.51;104168.13;5007395;28;20029;-68
2021/12/18 01:12:08;;;;;;;9.18;5.53;;;;;;;6.65;88.34;104171.78;5012035;28;20030;-69
2021/12/18 01:25:03;;;;;;;6.88;3.67;;;;;;;6.66;88.12;104163.13;5010104;28;20504;-68
2021/12/18 01:27:28;;;;;;;5.28;3.50;;;;;;;6.70;88.03;104171.97;5008925;28;20022;-69
2021/12/18 01:29:56;;;;;;;5.68;3.70;;;;;;;6.74;87.64;104170.38;5010503;28;20156;-69
2021/12/18 01:32:22;;;;;;;2.22;2.03;;;;;;;6.82;86.27;104175.03;4998565;28;20030;-68
2021/12/18 01:34:48;;;;;;;2.47;2.28;;;;;;;6.85;85.86;104169.00;4991963;28;20033;-68
2021/12/18 01:37:17;;;;;;;2.95;2.50;;;;;;;6.86;85.81;104162.06;4993425;28;20034;-68
2021/12/18 01:39:42;;;;;;;2.33;2.10;;;;;;;6.90;85.56;104169.19;4992045;28;20088;-68
2021/12/18 01:52:36;;;;;;;7.43;3.80;;;;;;;6.79;86.58;104180.19;5003860;28;20674;-68
2021/12/18 01:55:01;;;;;;;7.50;4.60;;;;;;;6.76;87.13;104174.81;4990993;28;20113;-68
2021/12/18 01:57:28;;;;;;;7.85;4.85;;;;;;;6.68;87.58;104177.16;4997403;28;20036;-68
2021/12/18 01:59:54;;;;;;;8.70;4.25;;;;;;;6.69;87.95;104180.69;5008112;28;20036;-68
2021/12/18 02:02:20;;;;;;;6.28;4.13;;;;;;;6.73;87.40;104169.47;5001847;28;20030;-68
2021/12/18 02:04:46;;;;;;;6.45;4.30;;;;;;;6.77;87.42;104175.72;4995805;28;20028;-68
2021/12/18 02:07:13;;;;;;;6.35;3.83;;;;;;;6.78;87.06;104173.16;5010679;28;20049;-68
2021/12/18 02:12:28;;;;;;;4.85;2.90;;;;;;;6.88;86.17;104170.84;5008131;28;20367;-68
2021/12/18 02:22:50;;;;;;;3.97;3.20;;;;;;;6.86;85.82;104162.06;4998400;28;20164;-67
2021/12/18 02:25:16;;;;;;;5.45;3.67;;;;;;;6.79;85.82;104153.97;5014947;28;20013;-68
2021/12/18 02:27:42;;;;;;;7.88;3.85;;;;;;;6.68;85.99;104143.09;5010875;28;20116;-68
2021/12/18 02:30:11;;;;;;;4.10;3.28;;;;;;;6.67;86.17;104143.94;5009801;28;20036;-68
2021/12/18 02:32:36;;;;;;;5.35;3.35;;;;;;;6.67;86.18;104145.66;5010494;28;20032;-69
2021/12/18 02:35:05;;;;;;;4.53;3.30;;;;;;;6.70;86.09;104145.75;5004958;28;20460;-68
2021/12/18 02:37:33;;;;;;;5.10;2.92;;;;;;;6.65;86.12;104145.59;5008960;28;20029;-68
2021/12/18 02:42:29;;;;;;;6.57;4.50;;;;;;;6.57;86.58;104142.69;5011067;28;20121;-68
2021/12/18 02:44:54;;;;;;;12.25;4.47;;;;;;;6.55;86.95;104146.09;5000185;28;20014;-68
2021/12/18 02:47:20;;;;;;;8.35;3.47;;;;;;;6.60;86.52;104141.03;5010663;28;20462;-68
2021/12/18 02:49:49;;;;;;;7.95;4.72;;;;;;;6.58;86.62;104140.97;5009635;28;20065;-70
2021/12/18 02:52:15;;;;;;;7.88;5.10;;;;;;;6.56;87.02;104135.66;5009515;28;20056;-68
2021/12/18 02:54:41;;;;;;;8.57;5.10;;;;;;;6.56;87.08;104143.53;5003023;28;20622;-68
2021/12/18 02:57:07;;;;;;;10.20;5.70;;;;;;;6.55;87.48;104135.63;4996256;28;20474;-69
2021/12/18 03:00:03;;;;;;;11.63;5.40;;;;;;;6.56;87.60;104130.44;5000989;28;20109;-68
2021/12/18 03:02:33;;;;;;;11.73;6.55;;;;;;;6.60;87.45;104128.84;5000560;28;20041;-68
2021/12/18 03:05:05;;;;;;;11.15;6.13;;;;;;;6.53;87.98;104132.94;5003631;28;20026;-68
2021/12/18 03:07:31;;;;;;;13.70;7.10;;;;;;;6.49;88.29;104138.91;5008710;28;20049;-68
2021/12/18 03:25:44;;;;;;;13.95;7.35;;;;;;;6.32;88.93;104141.78;5008299;28;20043;-68
2021/12/18 03:28:09;;;;;;;18.88;7.35;;;;;;;6.34;89.08;104133.09;4998266;28;20601;-69
2021/12/18 03:30:36;;;;;;;13.88;6.03;;;;;;;6.34;89.04;104140.94;4989437;28;20204;-68
2021/12/18 03:33:02;;;;;;;17.17;7.88;;;;;;;6.29;89.28;104135.56;4990312;28;20465;-68
2021/12/18 03:35:27;;;;;;;17.00;7.40;;;;;;;6.23;89.51;104138.81;4994952;28;20129;-68
2021/12/18 03:37:53;;;;;;;14.82;5.80;;;;;;;6.25;89.47;104136.25;4997752;28;20426;-67
2021/12/18 03:40:22;;;;;;;13.80;6.45;;;;;;;6.26;89.49;104135.44;5000296;28;20034;-68
2021/12/18 03:42:48;;;;;;;13.30;6.30;;;;;;;6.25;89.31;104131.94;4990116;28;20068;-68
2021/12/18 03:45:15;;;;;;;14.32;6.28;;;;;;;6.24;89.37;104126.63;4988578;28;20014;-69
2021/12/18 03:47:41;;;;;;;17.35;6.65;;;;;;;6.23;89.41;104130.97;4999088;28;20033;-70
2021/12/18 03:50:07;;;;;;;16.38;6.63;;;;;;;6.23;89.39;104125.72;4997538;28;20030;-69
2021/12/18 03:52:32;;;;;;;22.33;7.03;;;;;;;6.22;89.47;104123.94;4988234;28;20535;-68
2021/12/18 03:54:59;;;;;;;18.80;7.03;;;;;;;6.20;89.61;104120.38;4990599;28;20030;-67
2021/12/18 03:57:25;;;;;;;16.23;6.80;;;;;;;6.15;89.45;104121.94;5026003;28;20029;-67
2021/12/18 03:59:50;;;;;;;17.60;5.88;;;;;;;6.15;89.45;104117.63;4999819;28;20470;-68
2021/12/18 04:02:16;;;;;;;13.95;5.53;;;;;;;6.15;89.48;104121.94;4990900;28;20323;-68
2021/12/18 04:04:41;;;;;;;13.13;5.65;;;;;;;6.10;89.37;104118.25;4990143;28;20026;-68
2021/12/18 04:07:08;;;;;;;9.30;4.05;;;;;;;6.15;89.09;104121.94;4989496;28;20073;-68
2021/12/18 04:09:34;;;;;;;14.77;5.93;;;;;;;6.10;89.08;104123.47;4991116;28;20030;-67
2021/12/18 04:11:59;;;;;;;11.55;4.63;;;;;;;6.09;89.28;104120.00;4995739;28;20506;-67
2021/12/18 04:14:24;;;;;;;15.95;5.82;;;;;;;6.11;89.38;104120.91;4988270;28;20027;-67
2021/12/18 04:16:50;;;;;;;11.82;4.60;;;;;;;6.15;89.10;104127.19;5005004;28;20104;-70
2021/12/18 04:19:15;;;;;;;24.15;6.00;;;;;;;6.08;89.34;104131.28;5001569;28;20129;-69
2021/12/18 04:21:42;;;;;;;18.95;6.05;;;;;;;6.01;89.63;104132.75;4997728;28;20053;-69
2021/12/18 04:24:08;;;;;;;12.98;5.65;;;;;;;6.01;89.85;104137.97;4989507;28;20034;-69
2021/12/18 04:26:34;;;;;;;13.07;5.35;;;;;;;5.97;89.78;104136.09;4989601;28;20034;-68
2021/12/18 04:29:01;;;;;;;12.20;4.95;;;;;;;6.01;89.85;104142.31;5006953;28;20091;-69
2021/12/18 04:31:27;;;;;;;9.63;4.72;;;;;;;6.02;89.15;104141.50;5001854;28;20030;-70
2021/12/18 04:33:54;;;;;;;22.27;5.45;;;;;;;5.93;89.41;104140.28;5000972;28;20045;-70
2021/12/18 04:36:19;;;;;;;12.07;5.82;;;;;;;5.92;89.83;104145.47;4992089;28;20030;-67
2021/12/18 04:38:45;;;;;;;17.80;5.45;;;;;;;5.91;89.69;104138.47;5008869;28;20474;-68
2021/12/18 04:41:11;;;;;;;29.45;7.20;;;;;;;5.83;89.96;104140.78;4999641;28;20038;-68
2021/12/18 04:43:37;;;;;;;20.30;6.68;;;;;;;5.77;89.82;104146.66;4997540;28;20129;-68
2021/12/18 04:46:03;;;;;;;12.52;5.80;;;;;;;5.73;89.93;104143.84;4987672;28;20098;-68
2021/12/18 04:48:28;;;;;;;15.63;6.63;;;;;;;5.71;89.92;104143.78;4989666;28;20108;-69
2021/12/18 04:50:53;;;;;;;13.98;5.93;;;;;;;5.68;89.92;104138.44;4993811;28;20338;-68
2021/12/18 04:53:19;;;;;;;23.80;7.78;;;;;;;5.68;90.09;104144.56;5003845;28;20063;-69
2021/12/18 04:55:45;;;;;;;28.17;8.88;;;;;;;5.68;90.25;104149.81;5008393;28;20029;-69
2021/12/18 04:58:11;;;;;;;46.58;9.25;;;;;;;5.67;90.46;104149.75;5007652;28;20032;-70
2021/12/18 05:00:39;;;;;;;48.42;8.85;;;;;;;5.66;90.78;104153.19;4996922;28;20108;-68
2021/12/18 05:03:11;;;;;;;97.35;11.20;;;;;;;5.63;90.63;104155.69;5003195;28;20030;-68
2021/12/18 05:05:37;;;;;;;80.35;11.50;;;;;;;5.62;90.94;104152.16;5007676;28;20034;-69
2021/12/18 05:08:03;;;;;;;64.25;9.55;;;;;;;5.55;91.06;104156.28;4991134;28;20101;-68
2021/12/18 05:10:28;;;;;;;24.58;7.50;;;;;;;5.47;90.88;104157.66;4992777;28;20502;-68
2021/12/18 05:12:54;;;;;;;20.25;8.00;;;;;;;5.50;90.75;104159.50;4995402;28;20106;-68
2021/12/18 05:15:19;;;;;;;18.25;6.55;;;;;;;5.49;90.70;104161.25;5005217;28;20064;-68
2021/12/18 05:17:48;;;;;;;20.05;6.43;;;;;;;5.44;90.76;104165.38;5012004;28;20075;-67
2021/12/18 05:20:13;;;;;;;17.23;5.90;;;;;;;5.45;91.01;104164.56;5001620;28;20030;-70
2021/12/18 05:22:39;;;;;;;17.00;5.50;;;;;;;5.46;90.74;104161.13;5002553;28;20077;-68
2021/12/18 05:25:05;;;;;;;17.20;6.25;;;;;;;5.44;90.33;104168.00;5005158;28;20112;-68
2021/12/18 05:27:31;;;;;;;7.70;3.85;;;;;;;5.50;90.00;104172.59;5012078;28;20036;-68
2021/12/18 05:29:57;;;;;;;7.60;3.90;;;;;;;5.55;89.42;104168.44;5010183;28;20030;-68
2021/12/18 05:32:23;;;;;;;16.83;5.30;;;;;;;5.47;89.16;104170.75;5011927;28;20477;-69
2021/12/18 05:34:48;;;;;;;19.55;5.25;;;;;;;5.36;89.72;104170.28;5006743;28;20025;-69
2021/12/18 05:37:19;;;;;;;14.35;4.10;;;;;;;5.30;89.89;104168.31;4991257;28;20105;-69
2021/12/18 05:39:47;;;;;;;11.10;4.43;;;;;;;5.33;89.79;104161.44;4990968;28;20037;-66
2021/12/18 05:42:14;;;;;;;9.85;3.90;;;;;;;5.37;89.69;104163.34;4994355;28;20077;-68
2021/12/18 05:44:39;;;;;;;10.43;4.20;;;;;;;5.30;89.61;104168.31;5011701;28;20180;-69
2021/12/18 05:47:05;;;;;;;20.38;4.60;;;;;;;5.22;89.77;104156.66;5009375;28;20107;-67
2021/12/18 05:49:30;;;;;;;10.05;4.75;;;;;;;5.19;89.70;104161.75;5008892;28;20132;-67
2021/12/18 05:51:56;;;;;;;18.15;4.70;;;;;;;5.15;89.96;104152.00;5015995;28;20032;-70
2021/12/18 05:54:22;;;;;;;14.45;4.22;;;;;;;5.13;90.20;104156.25;5018629;28;20369;-68
2021/12/18 05:56:47;;;;;;;9.65;3.58;;;;;;;5.10;90.02;104157.03;5010499;28;20022;-68
2021/12/18 05:59:12;;;;;;;14.30;4.07;;;;;;;5.05;89.95;104151.59;5009880;28;20022;-69
2021/12/18 06:01:38;;;;;;;5.68;2.50;;;;;;;5.05;90.03;104153.31;5010837;28;20588;-68
2021/12/18 06:04:04;;;;;;;8.68;3.40;;;;;;;5.08;89.77;104152.56;5010502;28;20541;-69
2021/12/18 06:06:30;;;;;;;3.58;1.73;;;;;;;5.03;89.51;104152.38;5010019;28;20470;-69
2021/12/18 06:08:56;;;;;;;9.90;3.10;;;;;;;4.97;89.57;104154.72;5008752;28;20406;-68
2021/12/18 06:11:22;;;;;;;5.18;2.35;;;;;;;4.94;89.58;104150.25;5010411;28;20026;-68
2021/12/18 06:13:51;;;;;;;13.95;2.08;;;;;;;4.91;89.53;104153.59;5006312;28;20540;-68
2021/12/18 06:16:18;;;;;;;5.00;2.40;;;;;;;4.90;89.63;104153.53;5008292;28;20080;-68
2021/12/18 06:18:44;;;;;;;8.95;3.55;;;;;;;4.82;89.80;104150.63;5007434;28;20029;-70
2021/12/18 06:21:14;;;;;;;10.82;3.40;;;;;;;4.85;90.16;104144.63;5010054;28;20779;-69
2021/12/18 06:23:44;;;;;;;14.20;4.30;;;;;;;4.84;90.16;104154.16;5009178;28;20278;-68
2021/12/18 06:26:10;;;;;;;10.75;2.67;;;;;;;4.87;90.08;104145.56;5011646;28;20037;-69
2021/12/18 06:28:35;;;;;;;21.35;3.22;;;;;;;4.85;90.03;104145.50;5008596;28;20026;-68
2021/12/18 06:31:01;;;;;;;11.13;3.58;;;;;;;4.83;90.16;104148.88;5007467;28;20028;-69
2021/12/18 06:33:28;;;;;;;19.15;3.22;;;;;;;4.87;90.21;104151.69;5018293;28;20458;-70
2021/12/18 06:35:53;;;;;;;25.83;5.70;;;;;;;4.87;90.04;104153.41;5029423;28;20496;-68
2021/12/18 06:38:18;;;;;;;23.70;2.83;;;;;;;4.92;89.85;104151.91;5027605;28;20029;-68
2021/12/18 06:40:44;;;;;;;22.23;3.05;;;;;;;4.83;89.86;104141.94;5018212;28;20030;-69
2021/12/18 06:43:10;;;;;;;27.35;3.40;;;;;;;4.79;89.95;104146.13;5009500;28;20033;-69
2021/12/18 06:45:36;;;;;;;17.10;3.25;;;;;;;4.82;90.12;104147.09;4989405;28;20022;-69
2021/12/18 06:48:01;;;;;;;14.73;2.40;;;;;;;4.70;89.89;104148.34;5000603;28;20027;-69
2021/12/18 06:50:27;;;;;;;34.78;2.85;;;;;;;4.63;89.74;104154.09;4997874;28;20159;-69
2021/12/18 06:52:52;;;;;;;6.40;1.45;;;;;;;4.56;89.41;104152.94;5002257;28;20482;-69
2021/12/18 06:55:18;;;;;;;9.57;1.63;;;;;;;4.49;89.47;104159.59;5005153;28;20156;-69
2021/12/18 06:57:43;;;;;;;23.00;2.25;;;;;;;4.43;89.59;104164.56;5009940;28;20033;-69
2021/12/18 07:00:11;;;;;;;12.18;2.13;;;;;;;4.38;89.79;104158.22;5007795;28;20022;-69
2021/12/18 07:02:38;;;;;;;7.63;2.10;;;;;;;4.37;90.18;104156.44;5008161;28;20033;-67
2021/12/18 07:05:04;;;;;;;12.48;2.80;;;;;;;4.40;90.13;104156.59;4991797;28;20610;-69
2021/12/18 07:07:30;;;;;;;7.38;1.90;;;;;;;4.43;90.33;104157.59;4989557;28;20052;-69
2021/12/18 07:09:55;;;;;;;19.13;2.45;;;;;;;4.48;90.41;104154.34;5003028;28;20025;-69
2021/12/18 07:12:20;;;;;;;33.78;3.55;;;;;;;4.46;90.57;104153.34;5007039;28;20022;-68
2021/12/18 07:14:46;;;;;;;20.40;3.08;;;;;;;4.47;90.46;104157.75;4998088;28;20221;-69
2021/12/18 07:17:11;;;;;;;14.20;2.90;;;;;;;4.42;89.90;104154.91;4988827;28;20462;-69
2021/12/18 07:19:37;;;;;;;9.43;2.83;;;;;;;4.39;89.85;104162.63;4989897;28;20029;-69
2021/12/18 07:22:02;;;;;;;8.70;2.08;;;;;;;4.42;89.65;104162.75;4989475;28;20023;-69
2021/12/18 07:24:28;;;;;;;6.47;2.08;;;;;;;4.38;89.49;104158.22;5005958;28;20029;-69
2021/12/18 07:26:54;;;;;;;7.63;2.42;;;;;;;4.30;89.74;104165.69;4997564;28;20033;-69
2021/12/18 07:29:19;;;;;;;7.88;2.40;;;;;;;4.33;89.87;104159.75;5007476;28;20053;-69
2021/12/18 07:31:45;;;;;;;8.40;2.58;;;;;;;4.30;89.91;104166.59;5007441;28;20025;-68
2021/12/18 07:34:10;;;;;;;7.05;2.33;;;;;;;4.41;89.75;104158.38;5007132;28;20037;-70
2021/12/18 07:36:36;;;;;;;11.70;2.60;;;;;;;4.39;89.78;104165.22;5006003;28;20034;-70
2021/12/18 07:39:02;;;;;;;7.03;2.55;;;;;;;4.39;89.77;104160.00;5004406;28;20331;-70
2021/12/18 07:41:27;;;;;;;13.30;3.00;;;;;;;4.38;89.89;104156.53;5008165;28;20032;-68
2021/12/18 07:43:55;;;;;;;10.98;3.38;;;;;;;4.41;89.98;104158.38;5005627;28;20090;-71
2021/12/18 07:46:21;;;;;;;13.88;3.30;;;;;;;4.39;90.15;104154.78;5008448;28;20529;-68
2021/12/18 07:48:46;;;;;;;15.48;3.40;;;;;;;4.43;90.13;104162.81;5008285;28;20018;-69
2021/12/18 07:51:11;;;;;;;7.00;2.50;;;;;;;4.47;90.00;104173.41;5005150;28;20029;-70
2021/12/18 07:53:37;;;;;;;11.20;3.05;;;;;;;4.38;89.43;104168.66;4998030;28;20040;-70
2021/12/18 07:56:04;;;;;;;9.30;2.95;;;;;;;4.38;89.61;104163.44;4997494;28;20026;-70
2021/12/18 07:58:30;;;;;;;10.07;3.38;;;;;;;4.41;89.69;104163.59;4999399;28;21115;-69
2021/12/18 08:00:55;;;;;;;15.43;3.10;;;;;;;4.36;89.79;104170.34;5004952;28;20382;-70
2021/12/18 08:03:20;;;;;;;20.58;3.97;;;;;;;4.41;89.74;104168.81;5007530;28;20018;-69
2021/12/18 08:05:46;;;;;;;14.70;3.50;;;;;;;4.36;89.59;104163.38;5009497;28;20034;-69
2021/12/18 08:08:12;;;;;;;8.63;3.15;;;;;;;4.33;89.86;104164.97;4998648;28;20497;-69
2021/12/18 08:10:37;;;;;;;11.23;3.88;;;;;;;4.33;90.05;104167.59;5005590;28;20026;-70
2021/12/18 08:13:03;;;;;;;12.48;3.90;;;;;;;4.34;90.22;104161.53;5005106;28;20014;-69
2021/12/18 08:15:29;;;;;;;11.27;3.70;;;;;;;4.33;90.07;104170.19;5006299;28;20238;-69
2021/12/18 08:17:57;;;;;;;18.48;3.80;;;;;;;4.33;89.66;104167.59;5006998;28;20117;-68
2021/12/18 08:20:23;;;;;;;11.23;3.47;;;;;;;4.31;89.61;104164.91;5007836;28;20033;-69
2021/12/18 08:22:48;;;;;;;16.17;3.25;;;;;;;4.34;89.43;104170.25;4984121;28;20223;-69
2021/12/18 08:25:14;;;;;;;8.02;3.33;;;;;;;4.34;89.29;104171.97;5003032;28;20113;-70
2021/12/18 08:27:39;;;;;;;6.80;2.25;;;;;;;4.41;89.26;104169.72;5003635;28;20220;-70
2021/12/18 08:30:05;;;;;;;7.13;2.70;;;;;;;4.40;89.06;104177.47;5007469;28;20109;-69
2021/12/18 08:32:30;;;;;;;5.93;2.22;;;;;;;4.49;88.40;104175.25;5005937;28;20165;-69
2021/12/18 08:34:57;;;;;;;8.25;2.80;;;;;;;4.34;88.47;104178.09;4993944;28;20483;-70
2021/12/18 08:37:22;;;;;;;10.13;3.33;;;;;;;4.29;88.60;104176.97;4994787;28;20044;-69
2021/12/18 08:39:48;;;;;;;20.00;3.20;;;;;;;4.21;89.09;104168.78;5011492;28;20026;-69
2021/12/18 08:42:20;;;;;;;5.95;2.65;;;;;;;4.16;89.09;104179.00;5012488;28;20030;-69
2021/12/18 08:44:45;;;;;;;8.75;2.70;;;;;;;4.22;88.87;104178.41;4993293;28;20164;-69
2021/12/18 08:47:11;;;;;;;9.18;3.13;;;;;;;4.23;88.81;104176.69;4995147;28;20445;-69
2021/12/18 08:49:38;;;;;;;6.00;2.78;;;;;;;4.35;88.79;104179.88;5006108;28;20029;-69
2021/12/18 08:52:03;;;;;;;6.47;2.35;;;;;;;4.37;88.46;104177.34;4995760;28;20031;-69
2021/12/18 08:54:30;;;;;;;7.90;2.15;;;;;;;4.28;88.56;104178.69;5007637;28;20025;-68
2021/12/18 08:56:55;;;;;;;10.77;2.40;;;;;;;4.33;88.54;104180.63;5010832;28;20038;-70
2021/12/18 08:59:21;;;;;;;5.22;2.20;;;;;;;4.39;88.87;104183.50;5008616;28;20063;-70
2021/12/18 09:01:46;;;;;;;11.25;2.60;;;;;;;4.37;88.72;104178.22;5002704;28;20426;-69
2021/12/18 09:04:11;;;;;;;8.43;2.00;;;;;;;4.45;89.09;104181.19;5000467;28;20076;-69
2021/12/18 09:06:37;;;;;;;9.68;2.40;;;;;;;4.43;88.76;104180.22;4999070;28;20109;-69
2021/12/18 09:09:03;;;;;;;6.15;2.85;;;;;;;4.49;88.48;104177.88;5001982;28;20125;-69
2021/12/18 09:11:28;;;;;;;13.02;2.65;;;;;;;4.47;88.47;104168.19;4975866;28;20041;-69
2021/12/18 09:13:54;;;;;;;21.30;2.50;;;;;;;4.52;88.11;104175.41;5010392;28;20034;-69
2021/12/18 09:16:19;;;;;;;10.05;3.03;;;;;;;4.49;88.60;104175.25;5009049;28;20727;-69
2021/12/18 09:18:44;;;;;;;6.60;2.60;;;;;;;4.57;88.63;104174.75;4999836;28;20030;-68
2021/12/18 09:21:10;;;;;;;6.90;2.78;;;;;;;4.74;87.89;104180.72;5006524;28;20108;-70
2021/12/18 09:23:35;;;;;;;5.97;2.25;;;;;;;4.75;87.38;104175.56;5030875;28;20025;-70
2021/12/18 09:26:00;;;;;;;3.63;2.08;;;;;;;4.79;87.30;104172.25;5029735;28;20473;-70
2021/12/18 09:28:26;;;;;;;3.78;2.53;;;;;;;4.83;87.40;104172.38;5030612;28;20022;-69
2021/12/18 09:30:52;;;;;;;14.48;2.38;;;;;;;4.84;87.42;104177.69;5029472;28;20040;-70
2021/12/18 09:33:18;;;;;;;20.48;2.78;;;;;;;4.86;87.32;104176.03;5030615;28;20465;-70
2021/12/18 09:35:44;;;;;;;8.57;3.00;;;;;;;4.87;87.48;104169.06;5017351;28;20022;-71
2021/12/18 09:38:10;;;;;;;15.38;2.95;;;;;;;4.82;87.57;104168.91;5005137;28;20042;-71
2021/12/18 09:40:36;;;;;;;15.07;2.90;;;;;;;4.85;87.62;104169.00;4990572;28;20160;-69
2021/12/18 09:43:02;;;;;;;14.23;2.78;;;;;;;4.84;87.69;104169.84;4989325;28;20386;-71
2021/12/18 09:45:28;;;;;;;7.22;2.30;;;;;;;4.90;87.50;104166.59;4990974;28;20045;-70
2021/12/18 09:47:53;;;;;;;6.13;3.05;;;;;;;4.93;87.54;104165.03;4989657;28;20018;-69
2021/12/18 09:50:22;;;;;;;10.73;2.83;;;;;;;4.98;87.50;104162.63;5008967;28;20054;-69
2021/12/18 09:52:47;;;;;;;7.38;3.15;;;;;;;5.05;87.61;104159.44;5010754;28;20355;-69
2021/12/18 09:55:13;;;;;;;13.60;3.60;;;;;;;5.06;87.42;104161.22;5011044;28;20101;-70
2021/12/18 09:57:39;;;;;;;11.10;2.88;;;;;;;5.11;87.20;104157.91;5010665;28;20061;-70
2021/12/18 10:00:07;;;;;;;15.10;2.95;;;;;;;5.12;86.60;104162.31;5009830;28;20113;-69
2021/12/18 10:02:33;;;;;;;6.10;2.45;;;;;;;5.17;86.06;104164.31;5008611;28;20038;-70
2021/12/18 10:04:58;;;;;;;18.17;2.42;;;;;;;5.11;85.87;104157.91;5007637;28;20044;-69
2021/12/18 10:07:26;;;;;;;37.67;3.92;;;;;;;4.91;86.34;104155.34;4992517;28;20126;-68
2021/12/18 10:09:54;;;;;;;23.27;3.15;;;;;;;4.90;86.40;104154.44;4979954;28;20535;-69
2021/12/18 10:12:22;;;;;;;6.65;3.15;;;;;;;4.79;86.86;104159.19;5009840;28;20026;-69
2021/12/18 10:15:05;;;;;;;7.97;2.58;;;;;;;4.73;87.17;104161.53;5003261;28;20096;-70
2021/12/18 10:17:36;;;;;;;3.78;2.50;;;;;;;4.68;86.92;104160.44;4994949;28;20523;-70
2021/12/18 10:20:11;;;;;;;3.50;2.38;;;;;;;4.74;86.85;104163.34;5006776;28;20030;-70
2021/12/18 10:22:48;;;;;;;3.20;2.20;;;;;;;4.75;86.44;104157.28;5009087;28;20044;-69
2021/12/18 10:25:17;;;;;;;3.58;2.30;;;;;;;4.79;86.62;104159.19;4992711;28;20359;-68
2021/12/18 10:27:44;;;;;;;19.83;2.60;;;;;;;4.79;86.15;104153.97;5010356;28;20382;-69
2021/12/18 10:30:16;;;;;;;12.13;2.58;;;;;;;4.80;86.24;104161.00;4997272;28;20021;-69
2021/12/18 10:33:14;;;;;;;20.67;3.03;;;;;;;4.70;86.73;104158.81;5010013;28;20022;-71
2021/12/18 10:35:54;;;;;;;4.97;2.85;;;;;;;4.75;86.93;104154.66;5007881;28;20113;-70
2021/12/18 10:38:50;;;;;;;27.00;3.67;;;;;;;4.71;87.58;104157.97;5008280;28;20151;-69
2021/12/18 10:41:25;;;;;;;17.60;3.25;;;;;;;4.77;87.44;104147.78;5012992;28;20108;-71
2021/12/18 10:44:09;;;;;;;12.63;2.90;;;;;;;4.84;86.65;104153.28;5028057;28;20487;-70
2021/12/18 10:46:37;;;;;;;6.05;2.95;;;;;;;4.71;87.33;104150.13;5028408;28;20032;-69
2021/12/18 10:49:04;;;;;;;5.82;2.85;;;;;;;4.77;87.86;104153.03;5026806;28;20033;-70
2021/12/18 10:51:31;;;;;;;4.85;2.70;;;;;;;4.91;86.79;104144.88;5000237;28;20382;-69
2021/12/18 10:54:09;;;;;;;67.28;6.65;;;;;;;4.91;86.67;104147.50;4990664;28;20171;-68
2021/12/18 10:56:40;;;;;;;28.33;3.72;;;;;;;4.97;87.35;104150.34;5008088;28;20047;-70
2021/12/18 10:59:20;;;;;;;19.95;3.35;;;;;;;4.99;86.71;104148.72;5007028;28;20042;-69
2021/12/18 11:01:54;;;;;;;10.48;2.67;;;;;;;5.00;86.45;104147.00;5004170;28;20519;-70
2021/12/18 11:04:27;;;;;;;11.95;3.28;;;;;;;4.92;86.92;104151.91;5007494;28;20025;-70
2021/12/18 11:06:54;;;;;;;5.60;2.88;;;;;;;4.97;86.92;104147.75;5006431;28;20417;-71
2021/12/18 11:09:29;;;;;;;2.67;2.08;;;;;;;4.92;85.79;104151.91;5019706;28;20099;-71
2021/12/18 11:14:31;;;;;;;4.10;1.90;;;;;;;4.85;86.46;104149.84;5007201;28;20498;-69
2021/12/18 11:17:00;;;;;;;5.15;2.30;;;;;;;4.89;85.93;104147.44;5004942;28;20136;-71
2021/12/18 11:19:28;;;;;;;2.17;1.80;;;;;;;5.02;86.50;104140.09;5001070;28;20064;-72
2021/12/18 11:21:59;;;;;;;3.10;2.50;;;;;;;5.12;86.55;104144.88;5006125;28;20100;-69
2021/12/18 11:24:54;;;;;;;9.18;2.80;;;;;;;5.17;86.17;104142.47;5005394;28;20033;-69
2021/12/18 11:27:21;;;;;;;3.60;2.75;;;;;;;5.24;86.67;104144.50;5003410;28;20120;-70
2021/12/18 11:29:57;;;;;;;3.92;2.63;;;;;;;5.38;86.48;104133.75;5003223;28;20029;-71
2021/12/18 11:32:29;;;;;;;14.35;3.05;;;;;;;5.28;85.86;104127.25;5006355;28;20462;-70
2021/12/18 11:34:56;;;;;;;4.60;2.40;;;;;;;5.24;85.91;104134.06;5003780;28;20105;-69
2021/12/18 11:37:23;;;;;;;16.20;2.90;;;;;;;5.09;85.55;104128.22;5002785;28;20470;-70
2021/12/18 11:39:50;;;;;;;11.25;3.17;;;;;;;4.97;86.12;104121.59;4997207;28;20085;-70
2021/12/18 11:42:17;;;;;;;10.02;3.80;;;;;;;4.96;87.06;104126.81;4995786;28;20021;-70
2021/12/18 11:44:53;;;;;;;12.45;3.92;;;;;;;5.05;86.79;104127.16;4995954;28;20049;-71
2021/12/18 11:47:30;;;;;;;27.48;4.20;;;;;;;5.05;86.88;104121.94;4997698;28;20502;-70
2021/12/18 11:50:02;;;;;;;22.48;3.50;;;;;;;5.10;86.47;104120.44;5005515;28;20033;-70
2021/12/18 11:52:28;;;;;;;27.02;3.83;;;;;;;5.02;87.12;104117.47;5001498;28;20026;-70
2021/12/18 11:54:56;;;;;;;8.00;3.13;;;;;;;5.01;87.57;104112.19;5022222;28;20072;-71
2021/12/18 11:57:41;;;;;;;55.80;6.10;;;;;;;5.09;87.29;104112.53;5006471;28;20022;-70
2021/12/18 12:00:17;;;;;;;24.10;10.23;;;;;;;5.16;87.16;104109.34;5002582;28;20034;-69
2021/12/18 12:02:49;;;;;;;5.60;3.78;;;;;;;5.14;87.12;104101.41;5004881;28;20104;-70
2021/12/18 12:05:20;;;;;;;14.60;3.67;;;;;;;5.13;87.09;104103.97;5003292;28;20385;-69
2021/12/18 12:07:45;;;;;;;9.05;3.97;;;;;;;5.24;87.09;104101.81;5004081;28;20060;-69
2021/12/18 12:11:05;;;;;;;5.85;3.38;;;;;;;5.24;86.70;104101.81;5006919;28;20105;-69
2021/12/18 12:13:06;;;;;;;7.70;3.50;;;;;;;5.23;87.10;104106.13;4997543;28;20037;-70
2021/12/18 12:15:31;;;;;;;9.68;3.50;;;;;;;5.18;86.94;104100.72;5005454;28;20030;-70
2021/12/18 12:18:00;;;;;;;5.10;3.75;;;;;;;5.16;86.65;104094.53;5009975;28;20489;-68
2021/12/18 12:20:46;;;;;;;8.13;3.10;;;;;;;5.14;87.04;104087.44;5003724;28;20025;-69
2021/12/18 12:23:12;;;;;;;4.18;2.97;;;;;;;5.21;86.81;104086.88;5006868;28;20037;-69